Time;durP1;ratioP1;P1;durP2;ratioP2;P2;SDS_P1;SDS_P2;PMS_P1;PMS_P2;Temp;Humidity;BMP_temperature;BMP_pressure;BME280_temperature;BME280_humidity;BME280_pressure;Samples;Min_cycle;Max_cycle;Signal;HPM_P1;HPM_P2
2022/04/24 00:00:31;;;;;;;82.47;37.70;;;;;;;;;;6302334;28;20028;-81
2022/04/24 00:03:32;;;;;;;81.45;37.80;;;;;;;;;;6295422;28;20024;-81
2022/04/24 00:06:32;;;;;;;88.57;37.90;;;;;;;;;;6304130;28;20020;-81
2022/04/24 00:09:33;;;;;;;94.57;42.60;;;;;;;;;;6304272;28;20028;-81
2022/04/24 00:12:33;;;;;;;92.03;44.90;;;;;;;;;;6307326;28;20121;-81
2022/04/24 00:15:33;;;;;;;79.65;39.45;;;;;;;;;;6304172;28;20020;-81
2022/04/24 00:18:34;;;;;;;89.55;38.85;;;;;;;;;;6302111;28;20028;-81
2022/04/24 00:21:35;;;;;;;87.80;36.97;;;;;;;;;;6283080;28;20029;-81
2022/04/24 00:24:35;;;;;;;80.65;36.08;;;;;;;;;;6299671;28;20373;-81
2022/04/24 00:27:35;;;;;;;68.47;31.33;;;;;;;;;;6281499;28;20028;-81
2022/04/24 00:30:36;;;;;;;77.90;32.72;;;;;;;;;;6281331;28;20025;-81
2022/04/24 00:33:36;;;;;;;72.20;32.47;;;;;;;;;;6279919;28;20040;-81
2022/04/24 00:36:37;;;;;;;74.57;29.52;;;;;;;;;;6304927;28;20490;-81
2022/04/24 00:39:37;;;;;;;67.27;27.60;;;;;;;;;;6303956;28;20486;-80
2022/04/24 00:42:37;;;;;;;65.57;30.48;;;;;;;;;;6300195;28;20020;-80
2022/04/24 00:45:38;;;;;;;59.97;29.27;;;;;;;;;;6277825;28;20062;-80
2022/04/24 00:48:38;;;;;;;61.28;28.75;;;;;;;;;;6277485;28;20395;-81
2022/04/24 00:51:39;;;;;;;60.65;25.38;;;;;;;;;;6278232;28;20472;-80
2022/04/24 00:54:40;;;;;;;58.85;26.33;;;;;;;;;;6278526;28;20025;-80
2022/04/24 00:57:40;;;;;;;51.55;25.73;;;;;;;;;;6276216;28;20029;-80
2022/04/24 01:00:41;;;;;;;54.47;23.05;;;;;;;;;;6276673;28;20033;-80
2022/04/24 01:03:42;;;;;;;56.38;23.88;;;;;;;;;;6293560;28;20074;-79
2022/04/24 01:06:43;;;;;;;49.38;24.92;;;;;;;;;;6301014;28;20391;-80
2022/04/24 01:09:43;;;;;;;64.00;28.85;;;;;;;;;;6302078;28;20027;-80
2022/04/24 01:12:43;;;;;;;56.38;28.48;;;;;;;;;;6301427;28;20079;-81
2022/04/24 01:15:44;;;;;;;65.57;29.00;;;;;;;;;;6299721;28;20498;-80
2022/04/24 01:18:44;;;;;;;62.97;29.35;;;;;;;;;;6299993;28;20028;-81
2022/04/24 01:21:46;;;;;;;55.30;26.13;;;;;;;;;;6297770;28;20035;-80
2022/04/24 01:24:46;;;;;;;52.25;24.70;;;;;;;;;;6294294;28;20327;-81
2022/04/24 01:27:46;;;;;;;47.95;21.30;;;;;;;;;;6299768;28;20024;-80
2022/04/24 01:30:47;;;;;;;51.05;22.20;;;;;;;;;;6282956;28;20025;-80
2022/04/24 01:33:47;;;;;;;42.05;20.27;;;;;;;;;;6276925;28;20081;-80
2022/04/24 01:36:48;;;;;;;41.33;18.30;;;;;;;;;;6298828;28;20099;-80
2022/04/24 01:39:48;;;;;;;46.90;22.25;;;;;;;;;;6301038;28;20017;-80
2022/04/24 01:42:48;;;;;;;48.65;22.40;;;;;;;;;;6301039;28;20442;-80
2022/04/24 01:45:49;;;;;;;44.17;22.38;;;;;;;;;;6299402;28;20028;-80
2022/04/24 01:48:49;;;;;;;50.42;24.42;;;;;;;;;;6299305;28;20029;-80
2022/04/24 01:51:49;;;;;;;60.60;23.88;;;;;;;;;;6297825;28;20028;-80
2022/04/24 01:54:50;;;;;;;38.78;23.70;;;;;;;;;;6291894;28;20079;-80
2022/04/24 01:57:50;;;;;;;50.23;23.27;;;;;;;;;;6273771;28;20467;-80
2022/04/24 02:00:50;;;;;;;46.85;22.73;;;;;;;;;;6274065;28;21075;-80
2022/04/24 02:03:51;;;;;;;44.03;21.90;;;;;;;;;;6295015;28;20035;-80
2022/04/24 02:06:51;;;;;;;40.67;20.60;;;;;;;;;;6299131;28;20028;-80
2022/04/24 02:09:51;;;;;;;44.70;21.92;;;;;;;;;;6295492;28;20035;-80
2022/04/24 02:12:51;;;;;;;48.33;24.13;;;;;;;;;;6274020;28;20044;-80
2022/04/24 02:15:52;;;;;;;38.47;20.27;;;;;;;;;;6278268;28;20298;-80
2022/04/24 02:18:52;;;;;;;42.55;22.70;;;;;;;;;;6284662;28;20312;-80
2022/04/24 02:21:52;;;;;;;46.70;22.23;;;;;;;;;;6278790;28;20042;-80
2022/04/24 02:24:52;;;;;;;40.97;21.23;;;;;;;;;;6284126;28;20276;-80
2022/04/24 02:27:54;;;;;;;47.65;21.70;;;;;;;;;;6286572;28;20481;-80
2022/04/24 02:30:54;;;;;;;38.33;19.20;;;;;;;;;;6274408;28;20028;-80
2022/04/24 02:33:54;;;;;;;40.58;20.48;;;;;;;;;;6280322;28;20036;-80
2022/04/24 02:36:54;;;;;;;35.67;19.05;;;;;;;;;;6279385;28;21191;-80
2022/04/24 02:39:55;;;;;;;32.60;19.52;;;;;;;;;;6277310;28;20040;-80
2022/04/24 02:42:55;;;;;;;37.75;22.00;;;;;;;;;;6276936;28;20033;-80
2022/04/24 02:45:55;;;;;;;37.03;19.47;;;;;;;;;;6278551;28;20488;-80
2022/04/24 02:48:55;;;;;;;36.17;18.33;;;;;;;;;;6282856;28;20263;-80
2022/04/24 02:51:56;;;;;;;34.75;19.83;;;;;;;;;;6300964;28;20278;-80
2022/04/24 02:54:56;;;;;;;36.67;18.75;;;;;;;;;;6301549;28;20021;-80
2022/04/24 02:57:56;;;;;;;40.03;22.30;;;;;;;;;;6298942;28;20024;-80
2022/04/24 03:00:56;;;;;;;62.92;28.48;;;;;;;;;;6299930;28;20076;-80
2022/04/24 03:03:57;;;;;;;51.08;28.48;;;;;;;;;;6291943;28;20395;-80
2022/04/24 03:06:57;;;;;;;53.15;29.42;;;;;;;;;;6287930;28;20384;-80
2022/04/24 03:09:57;;;;;;;51.93;27.50;;;;;;;;;;6283402;28;20028;-80
2022/04/24 03:12:58;;;;;;;49.80;27.77;;;;;;;;;;6279191;28;20291;-79
2022/04/24 03:15:58;;;;;;;46.60;23.00;;;;;;;;;;6291563;28;20082;-80
2022/04/24 03:18:58;;;;;;;39.90;23.37;;;;;;;;;;6285574;28;20017;-80
2022/04/24 03:21:58;;;;;;;35.13;20.80;;;;;;;;;;6284423;28;20674;-80
2022/04/24 03:25:02;;;;;;;34.83;17.95;;;;;;;;;;6281161;28;20750;-80
2022/04/24 03:28:02;;;;;;;31.50;16.15;;;;;;;;;;6290040;28;20025;-80
2022/04/24 03:31:03;;;;;;;30.00;15.60;;;;;;;;;;6286536;28;20021;-80
2022/04/24 03:34:03;;;;;;;28.67;16.20;;;;;;;;;;6277385;28;20035;-80
2022/04/24 03:37:04;;;;;;;28.65;14.60;;;;;;;;;;6298595;28;20020;-80
2022/04/24 03:40:06;;;;;;;33.00;16.02;;;;;;;;;;6288525;28;20062;-80
2022/04/24 03:43:06;;;;;;;31.53;17.60;;;;;;;;;;6274839;28;20075;-80
2022/04/24 03:46:06;;;;;;;34.30;18.40;;;;;;;;;;6273836;28;20095;-80
2022/04/24 03:49:06;;;;;;;30.83;17.77;;;;;;;;;;6285161;28;20039;-80
2022/04/24 03:52:08;;;;;;;29.27;15.50;;;;;;;;;;6282677;28;20792;-80
2022/04/24 03:55:08;;;;;;;32.80;17.70;;;;;;;;;;6278169;28;20263;-80
2022/04/24 03:58:08;;;;;;;27.38;15.50;;;;;;;;;;6278218;28;20025;-80
2022/04/24 04:01:09;;;;;;;25.65;13.45;;;;;;;;;;6281445;28;20013;-79
2022/04/24 04:04:09;;;;;;;25.88;15.48;;;;;;;;;;6283921;28;20025;-79
2022/04/24 04:07:09;;;;;;;28.50;16.30;;;;;;;;;;6277785;28;20087;-80
2022/04/24 04:10:09;;;;;;;30.33;17.13;;;;;;;;;;6283197;28;20263;-80
2022/04/24 04:13:10;;;;;;;26.95;14.65;;;;;;;;;;6275186;28;20307;-80
2022/04/24 04:16:10;;;;;;;19.17;11.80;;;;;;;;;;6277542;28;20041;-80
2022/04/24 04:19:10;;;;;;;21.50;14.13;;;;;;;;;;6284064;28;20035;-80
2022/04/24 04:22:10;;;;;;;27.67;14.93;;;;;;;;;;6293478;28;20263;-80
2022/04/24 04:25:11;;;;;;;23.05;14.02;;;;;;;;;;6281690;28;20316;-80
2022/04/24 04:28:11;;;;;;;24.92;14.77;;;;;;;;;;6279496;28;20013;-80
2022/04/24 04:31:12;;;;;;;27.67;16.87;;;;;;;;;;6274079;28;20024;-79
2022/04/24 04:34:12;;;;;;;26.67;15.80;;;;;;;;;;6276086;28;20275;-80
2022/04/24 04:37:13;;;;;;;23.33;14.38;;;;;;;;;;6296793;28;20012;-80
2022/04/24 04:40:13;;;;;;;24.57;15.17;;;;;;;;;;6296336;28;20062;-80
2022/04/24 04:43:13;;;;;;;25.60;15.13;;;;;;;;;;6296330;28;20263;-79
2022/04/24 04:46:13;;;;;;;23.70;13.57;;;;;;;;;;6297534;28;20021;-80
2022/04/24 04:49:14;;;;;;;22.98;12.85;;;;;;;;;;6297175;28;20111;-80
2022/04/24 04:52:14;;;;;;;23.47;13.63;;;;;;;;;;6296963;28;20048;-80
2022/04/24 04:55:14;;;;;;;22.57;12.17;;;;;;;;;;6300631;28;20338;-80
2022/04/24 04:58:15;;;;;;;24.33;12.95;;;;;;;;;;6299385;28;20251;-80
2022/04/24 05:01:15;;;;;;;26.40;12.90;;;;;;;;;;6304612;28;20027;-80
2022/04/24 05:04:15;;;;;;;26.85;12.15;;;;;;;;;;6303942;28;20472;-80
2022/04/24 05:07:16;;;;;;;35.77;15.43;;;;;;;;;;6303654;28;20024;-81
2022/04/24 05:10:16;;;;;;;31.13;14.45;;;;;;;;;;6299195;28;20811;-80
2022/04/24 05:13:16;;;;;;;29.00;15.48;;;;;;;;;;6300651;28;20114;-80
2022/04/24 05:16:17;;;;;;;22.95;13.57;;;;;;;;;;6300574;28;20032;-81
2022/04/24 05:19:17;;;;;;;22.55;12.48;;;;;;;;;;6291439;28;20064;-81
2022/04/24 05:22:17;;;;;;;25.20;13.23;;;;;;;;;;6275164;28;20135;-81
2022/04/24 05:25:17;;;;;;;29.07;13.93;;;;;;;;;;6291977;28;20346;-81
2022/04/24 05:28:18;;;;;;;23.40;15.23;;;;;;;;;;6299601;28;20626;-81
2022/04/24 05:31:18;;;;;;;24.85;13.90;;;;;;;;;;6285833;28;20682;-80
2022/04/24 05:34:18;;;;;;;29.33;15.02;;;;;;;;;;6275935;28;20025;-81
2022/04/24 05:37:19;;;;;;;24.90;12.57;;;;;;;;;;6285489;28;20523;-80
2022/04/24 05:40:19;;;;;;;24.15;14.05;;;;;;;;;;6293203;28;20048;-80
2022/04/24 05:43:19;;;;;;;28.25;14.15;;;;;;;;;;6284656;28;20467;-81
2022/04/24 05:46:19;;;;;;;25.97;15.80;;;;;;;;;;6286335;28;20020;-81
2022/04/24 05:49:20;;;;;;;24.77;14.63;;;;;;;;;;6269488;28;20271;-81
2022/04/24 05:52:20;;;;;;;27.02;12.63;;;;;;;;;;6271628;28;20319;-81
2022/04/24 05:55:20;;;;;;;25.40;13.85;;;;;;;;;;6269805;28;20020;-81
2022/04/24 05:58:20;;;;;;;31.05;16.00;;;;;;;;;;6278394;28;20507;-81
2022/04/24 06:01:21;;;;;;;24.90;15.35;;;;;;;;;;6269633;28;20025;-81
2022/04/24 06:04:21;;;;;;;27.58;15.15;;;;;;;;;;6285819;28;20024;-81
2022/04/24 06:07:23;;;;;;;23.50;12.47;;;;;;;;;;6293081;28;20027;-81
2022/04/24 06:10:23;;;;;;;27.67;15.82;;;;;;;;;;6292975;28;20698;-82
2022/04/24 06:13:23;;;;;;;24.53;13.20;;;;;;;;;;6293438;28;20089;-79
2022/04/24 06:16:23;;;;;;;26.23;13.23;;;;;;;;;;6270352;28;20262;-80
2022/04/24 06:19:24;;;;;;;23.77;13.40;;;;;;;;;;6276065;28;20280;-81
2022/04/24 06:22:24;;;;;;;25.50;14.13;;;;;;;;;;6270493;28;20765;-82
2022/04/24 06:25:25;;;;;;;26.40;14.30;;;;;;;;;;6295007;28;20082;-82
2022/04/24 06:28:26;;;;;;;22.83;14.85;;;;;;;;;;6290359;28;20677;-82
2022/04/24 06:31:26;;;;;;;27.85;13.52;;;;;;;;;;6284692;28;20017;-82
2022/04/24 06:34:26;;;;;;;27.17;15.43;;;;;;;;;;6274313;28;20043;-82
2022/04/24 06:37:26;;;;;;;26.27;15.57;;;;;;;;;;6281544;28;20362;-84
2022/04/24 06:40:27;;;;;;;27.23;16.30;;;;;;;;;;6281585;28;20020;-83
2022/04/24 06:43:27;;;;;;;25.58;15.80;;;;;;;;;;6270869;28;20503;-83
2022/04/24 06:46:27;;;;;;;27.92;16.83;;;;;;;;;;6275584;28;20091;-83
2022/04/24 06:49:27;;;;;;;29.85;17.50;;;;;;;;;;6275124;28;20688;-83
2022/04/24 06:52:28;;;;;;;26.93;17.93;;;;;;;;;;6269354;28;20025;-83
2022/04/24 06:55:28;;;;;;;29.50;16.87;;;;;;;;;;6271623;28;20264;-83
2022/04/24 06:58:28;;;;;;;27.20;16.42;;;;;;;;;;6268218;28;20251;-84
2022/04/24 07:01:29;;;;;;;29.73;17.77;;;;;;;;;;6268585;28;20017;-83
2022/04/24 07:04:29;;;;;;;30.42;17.35;;;;;;;;;;6270668;28;20534;-83
2022/04/24 07:07:29;;;;;;;29.17;16.73;;;;;;;;;;6266855;28;20017;-84
2022/04/24 07:10:29;;;;;;;26.07;15.67;;;;;;;;;;6265866;28;20275;-83
2022/04/24 07:13:30;;;;;;;26.58;15.90;;;;;;;;;;6268284;28;20275;-84
2022/04/24 07:16:30;;;;;;;28.55;17.05;;;;;;;;;;6277415;28;20028;-84
2022/04/24 07:19:33;;;;;;;27.90;17.27;;;;;;;;;;6273779;28;20943;-83
2022/04/24 07:23:01;;;;;;;24.85;15.68;;;;;;;;;;6282749;28;20035;-83
2022/04/24 07:26:01;;;;;;;28.67;18.55;;;;;;;;;;6278445;28;20021;-83
2022/04/24 07:29:02;;;;;;;29.15;17.95;;;;;;;;;;6279471;28;20017;-84
2022/04/24 07:32:02;;;;;;;28.80;16.20;;;;;;;;;;6270906;28;20021;-84
2022/04/24 07:35:02;;;;;;;32.33;16.80;;;;;;;;;;6280983;28;20256;-84
2022/04/24 07:38:03;;;;;;;28.80;18.17;;;;;;;;;;6276309;28;20017;-84
2022/04/24 07:41:03;;;;;;;31.40;16.83;;;;;;;;;;6273094;28;20010;-84
2022/04/24 07:44:04;;;;;;;33.45;18.70;;;;;;;;;;6275154;28;20020;-83
2022/04/24 07:47:04;;;;;;;30.38;17.58;;;;;;;;;;6272474;28;20021;-84
2022/04/24 07:50:04;;;;;;;28.88;18.17;;;;;;;;;;6264553;28;20035;-84
2022/04/24 07:53:05;;;;;;;26.13;15.90;;;;;;;;;;6267403;28;20074;-84
2022/04/24 07:56:06;;;;;;;21.95;14.90;;;;;;;;;;6285854;28;20020;-84
2022/04/24 07:59:06;;;;;;;28.63;15.23;;;;;;;;;;6290196;28;20430;-84
2022/04/24 08:02:06;;;;;;;25.92;14.63;;;;;;;;;;6290436;28;20737;-83
2022/04/24 08:05:07;;;;;;;23.27;14.15;;;;;;;;;;6289748;28;20017;-84
2022/04/24 08:08:11;;;;;;;26.85;14.98;;;;;;;;;;6290159;28;20484;-83
2022/04/24 08:11:11;;;;;;;23.90;15.23;;;;;;;;;;6289346;28;20041;-83
2022/04/24 08:14:11;;;;;;;22.87;13.80;;;;;;;;;;6292672;28;20107;-83
2022/04/24 08:17:11;;;;;;;20.57;13.77;;;;;;;;;;6292453;28;20262;-82
2022/04/24 08:20:12;;;;;;;23.10;13.38;;;;;;;;;;6291875;28;20269;-82
2022/04/24 08:23:15;;;;;;;20.87;12.03;;;;;;;;;;6293200;28;20024;-83
2022/04/24 08:26:15;;;;;;;22.30;12.15;;;;;;;;;;6289073;28;20055;-82
2022/04/24 08:29:16;;;;;;;20.95;11.80;;;;;;;;;;6292837;28;20476;-82
2022/04/24 08:32:17;;;;;;;20.35;12.30;;;;;;;;;;6295028;28;20103;-82
2022/04/24 08:35:18;;;;;;;18.67;11.73;;;;;;;;;;6284861;28;20013;-82
2022/04/24 08:38:19;;;;;;;19.80;11.57;;;;;;;;;;6272296;28;20024;-81
2022/04/24 08:41:21;;;;;;;21.17;11.38;;;;;;;;;;6272718;28;20024;-81
2022/04/24 08:44:21;;;;;;;19.05;11.05;;;;;;;;;;6287387;28;20025;-81
2022/04/24 08:47:24;;;;;;;16.53;9.30;;;;;;;;;;6271922;28;20023;-81
2022/04/24 08:50:30;;;;;;;15.05;9.93;;;;;;;;;;6287665;28;20288;-81
2022/04/24 08:53:32;;;;;;;17.05;9.50;;;;;;;;;;6287256;28;20055;-81
2022/04/24 08:56:32;;;;;;;18.77;10.93;;;;;;;;;;6293603;28;20403;-81
2022/04/24 08:59:33;;;;;;;19.50;9.40;;;;;;;;;;6295337;28;20021;-81
2022/04/24 09:02:33;;;;;;;20.25;10.30;;;;;;;;;;6288263;28;20063;-81
2022/04/24 09:05:34;;;;;;;17.17;11.00;;;;;;;;;;6294577;28;20040;-81
2022/04/24 09:08:35;;;;;;;15.95;9.80;;;;;;;;;;6296341;28;20103;-81
2022/04/24 09:11:36;;;;;;;16.23;9.23;;;;;;;;;;6281716;28;20075;-81
2022/04/24 09:14:37;;;;;;;17.48;10.15;;;;;;;;;;6270156;28;20021;-81
2022/04/24 09:17:38;;;;;;;17.02;9.38;;;;;;;;;;6286368;28;20020;-80
2022/04/24 09:20:41;;;;;;;18.50;10.07;;;;;;;;;;6291272;28;20020;-81
2022/04/24 09:23:44;;;;;;;18.83;10.25;;;;;;;;;;6294004;28;20040;-81
2022/04/24 09:26:51;;;;;;;17.52;9.57;;;;;;;;;;6294539;28;20682;-81
2022/04/24 09:29:56;;;;;;;17.17;10.15;;;;;;;;;;6294385;28;20487;-81
2022/04/24 09:32:56;;;;;;;18.70;10.00;;;;;;;;;;6294659;28;20059;-81
2022/04/24 09:35:57;;;;;;;19.73;9.77;;;;;;;;;;6277397;28;20020;-81
2022/04/24 09:38:57;;;;;;;18.40;10.40;;;;;;;;;;6269403;28;20252;-81
2022/04/24 09:42:17;;;;;;;18.50;10.53;;;;;;;;;;6270620;28;20252;-81
2022/04/24 09:45:25;;;;;;;16.88;10.10;;;;;;;;;;6270821;28;20260;-81
2022/04/24 09:48:26;;;;;;;19.48;11.27;;;;;;;;;;6271069;28;20742;-81
2022/04/24 09:51:26;;;;;;;19.33;9.95;;;;;;;;;;6270879;28;20032;-81
2022/04/24 09:54:27;;;;;;;17.95;10.68;;;;;;;;;;6273487;28;20024;-81
2022/04/24 09:57:29;;;;;;;21.58;10.60;;;;;;;;;;6295171;28;20021;-81
2022/04/24 10:00:29;;;;;;;21.55;11.82;;;;;;;;;;6293650;28;20012;-81
2022/04/24 10:03:29;;;;;;;26.23;14.63;;;;;;;;;;6295123;28;20545;-81
2022/04/24 10:06:30;;;;;;;21.05;12.55;;;;;;;;;;6293817;28;20024;-81
2022/04/24 10:09:38;;;;;;;22.83;12.30;;;;;;;;;;6293747;28;20437;-81
2022/04/24 10:12:40;;;;;;;20.20;12.02;;;;;;;;;;6283578;28;20080;-81
2022/04/24 10:15:43;;;;;;;;;;;;;;;;;;6269107;28;20330;-81
2022/04/24 10:19:02;;;;;;;21.77;12.18;;;;;;;;;;6269831;28;20331;-79
2022/04/24 10:22:04;;;;;;;25.73;13.93;;;;;;;;;;6268640;28;20483;-81
2022/04/24 10:25:05;;;;;;;19.50;12.43;;;;;;;;;;6282032;28;20023;-81
2022/04/24 10:28:18;;;;;;;20.70;11.25;;;;;;;;;;6293717;28;20036;-80
2022/04/24 10:31:20;;;;;;;17.25;11.25;;;;;;;;;;6293253;28;20056;-80
2022/04/24 10:34:20;;;;;;;22.50;13.23;;;;;;;;;;6289114;28;20021;-81
2022/04/24 10:37:24;;;;;;;19.60;12.05;;;;;;;;;;6270127;28;20033;-81
2022/04/24 10:40:25;;;;;;;22.15;13.02;;;;;;;;;;6269450;28;20047;-80
2022/04/24 10:43:25;;;;;;;24.85;14.18;;;;;;;;;;6269509;28;20047;-80
2022/04/24 10:46:29;;;;;;;28.80;13.95;;;;;;;;;;6268023;28;20029;-80
2022/04/24 10:49:33;;;;;;;24.00;13.27;;;;;;;;;;6269169;28;20484;-81
2022/04/24 10:52:37;;;;;;;21.27;13.40;;;;;;;;;;6284480;28;20049;-80
2022/04/24 10:55:38;;;;;;;22.77;13.18;;;;;;;;;;6282868;28;20096;-81
2022/04/24 10:58:38;;;;;;;25.70;14.30;;;;;;;;;;6293505;28;20013;-81
2022/04/24 11:01:46;;;;;;;24.08;14.30;;;;;;;;;;6294197;28;20016;-81
2022/04/24 11:04:46;;;;;;;25.58;16.05;;;;;;;;;;6285471;28;20028;-80
2022/04/24 11:07:47;;;;;;;27.70;16.23;;;;;;;;;;6292425;28;20064;-81
2022/04/24 11:10:49;;;;;;;28.30;16.97;;;;;;;;;;6291203;28;20286;-80
2022/04/24 11:13:49;;;;;;;25.02;16.67;;;;;;;;;;6293669;28;20395;-80
2022/04/24 11:16:50;;;;;;;28.25;16.65;;;;;;;;;;6276114;28;20054;-80
2022/04/24 11:19:58;;;;;;;23.63;16.38;;;;;;;;;;6279863;28;20017;-80
2022/04/24 11:22:59;;;;;;;22.75;14.85;;;;;;;;;;6268797;28;20025;-79
2022/04/24 11:25:59;;;;;;;22.30;15.00;;;;;;;;;;6292706;28;20439;-80
2022/04/24 11:29:07;;;;;;;20.93;14.13;;;;;;;;;;6267094;28;20112;-79
2022/04/24 11:32:08;;;;;;;20.27;13.02;;;;;;;;;;6267152;28;20122;-79
2022/04/24 11:35:08;;;;;;;23.43;15.13;;;;;;;;;;6267837;28;20488;-79
2022/04/24 11:38:12;;;;;;;22.57;14.47;;;;;;;;;;6268155;28;20017;-79
2022/04/24 11:41:14;;;;;;;21.67;13.88;;;;;;;;;;6267056;28;20101;-79
2022/04/24 11:50:53;;;;;;;18.67;11.70;;;;;;;;;;6268300;28;20025;-79
2022/04/24 11:53:55;;;;;;;18.90;12.07;;;;;;;;;;6266937;28;20074;-79
2022/04/24 11:56:56;;;;;;;17.67;11.55;;;;;;;;;;6282351;28;20159;-79
2022/04/24 11:59:57;;;;;;;15.17;11.37;;;;;;;;;;6281237;28;20021;-79
2022/04/24 12:02:58;;;;;;;15.47;10.87;;;;;;;;;;6281418;28;20025;-79
2022/04/24 12:05:59;;;;;;;19.90;11.90;;;;;;;;;;6270159;28;20397;-79
2022/04/24 12:09:07;;;;;;;16.30;9.90;;;;;;;;;;6281804;28;20020;-78
2022/04/24 12:12:12;;;;;;;14.82;9.55;;;;;;;;;;6291225;28;20059;-79
2022/04/24 12:15:14;;;;;;;18.58;10.77;;;;;;;;;;6282529;28;20102;-79
2022/04/24 12:18:19;;;;;;;17.88;11.25;;;;;;;;;;6284229;28;20040;-78
2022/04/24 12:21:19;;;;;;;17.63;10.30;;;;;;;;;;6271685;28;20062;-78
2022/04/24 12:24:20;;;;;;;18.20;10.63;;;;;;;;;;6284955;28;20032;-79
2022/04/24 12:27:20;;;;;;;15.67;9.93;;;;;;;;;;6277570;28;20472;-79
2022/04/24 12:30:21;;;;;;;16.53;9.80;;;;;;;;;;6278661;28;20341;-78
2022/04/24 12:33:21;;;;;;;17.67;9.77;;;;;;;;;;6276393;28;20020;-79
2022/04/24 12:36:22;;;;;;;18.33;9.70;;;;;;;;;;6280902;28;20035;-79
2022/04/24 12:39:26;;;;;;;16.57;8.97;;;;;;;;;;6268998;28;20020;-79
2022/04/24 12:42:26;;;;;;;13.48;8.52;;;;;;;;;;6270873;28;20017;-79
2022/04/24 12:45:27;;;;;;;18.67;10.77;;;;;;;;;;6273642;28;20020;-79
2022/04/24 12:48:27;;;;;;;15.90;9.33;;;;;;;;;;6270241;28;20108;-79
2022/04/24 12:51:27;;;;;;;15.37;9.13;;;;;;;;;;6276066;28;20020;-79
2022/04/24 12:54:27;;;;;;;17.90;10.13;;;;;;;;;;6271681;28;20035;-79
2022/04/24 12:57:28;;;;;;;16.87;10.17;;;;;;;;;;6270788;28;20113;-79
2022/04/24 13:00:29;;;;;;;15.40;9.43;;;;;;;;;;6274089;28;20025;-79
2022/04/24 13:03:30;;;;;;;18.65;11.63;;;;;;;;;;6273195;28;20025;-79
2022/04/24 13:06:30;;;;;;;16.20;11.37;;;;;;;;;;6277405;28;20047;-79
2022/04/24 13:09:30;;;;;;;18.93;12.40;;;;;;;;;;6270338;28;20025;-79
2022/04/24 13:12:31;;;;;;;18.47;11.23;;;;;;;;;;6273505;28;20049;-78
2022/04/24 13:15:33;;;;;;;18.53;10.73;;;;;;;;;;6270387;28;20025;-79
2022/04/24 13:18:33;;;;;;;18.33;11.93;;;;;;;;;;6272877;28;20024;-79
2022/04/24 13:21:33;;;;;;;17.60;9.60;;;;;;;;;;6282053;28;20530;-79
2022/04/24 13:24:34;;;;;;;14.00;9.20;;;;;;;;;;6280332;28;20448;-79
2022/04/24 13:27:34;;;;;;;17.08;9.15;;;;;;;;;;6294715;28;20025;-79
2022/04/24 13:30:35;;;;;;;13.70;8.53;;;;;;;;;;6295854;28;20048;-79
2022/04/24 13:33:35;;;;;;;13.07;8.50;;;;;;;;;;6295932;28;20099;-79
2022/04/24 13:36:35;;;;;;;16.70;9.37;;;;;;;;;;6295795;28;20013;-79
2022/04/24 13:39:36;;;;;;;15.87;11.43;;;;;;;;;;6288335;28;20021;-79
2022/04/24 13:42:36;;;;;;;18.67;11.70;;;;;;;;;;6271709;28;20032;-79
2022/04/24 13:45:36;;;;;;;18.63;11.40;;;;;;;;;;6271039;28;20210;-79
2022/04/24 13:48:36;;;;;;;14.47;9.57;;;;;;;;;;6272611;28;20021;-79
2022/04/24 13:51:37;;;;;;;15.63;9.60;;;;;;;;;;6289476;28;20024;-79
2022/04/24 13:54:39;;;;;;;16.50;9.10;;;;;;;;;;6279557;28;20400;-79
2022/04/24 13:57:39;;;;;;;14.35;8.35;;;;;;;;;;6289479;28;20074;-79
2022/04/24 14:00:40;;;;;;;14.13;6.57;;;;;;;;;;6277915;28;20380;-79
2022/04/24 14:03:41;;;;;;;16.70;8.80;;;;;;;;;;6278135;28;20028;-79
2022/04/24 14:06:42;;;;;;;13.93;9.57;;;;;;;;;;6270360;28;20021;-78
2022/04/24 14:09:42;;;;;;;14.43;8.73;;;;;;;;;;6269677;28;20051;-79
2022/04/24 14:12:43;;;;;;;18.73;10.02;;;;;;;;;;6270461;28;20048;-79
2022/04/24 14:15:43;;;;;;;16.83;9.70;;;;;;;;;;6269945;28;20123;-79
2022/04/24 14:18:43;;;;;;;15.15;8.80;;;;;;;;;;6282746;28;20020;-79
2022/04/24 14:21:43;;;;;;;13.83;7.03;;;;;;;;;;6274291;28;20092;-79
2022/04/24 14:24:43;;;;;;;15.63;7.80;;;;;;;;;;6280462;28;20016;-79
2022/04/24 14:27:44;;;;;;;13.53;6.93;;;;;;;;;;6266459;28;20566;-79
2022/04/24 14:30:46;;;;;;;11.77;6.90;;;;;;;;;;6272870;28;20435;-79
2022/04/24 14:33:46;;;;;;;12.63;7.43;;;;;;;;;;6270451;28;20116;-79
2022/04/24 14:36:47;;;;;;;11.90;5.87;;;;;;;;;;6294251;28;20479;-79
2022/04/24 14:39:47;;;;;;;13.47;6.90;;;;;;;;;;6291252;28;20036;-79
2022/04/24 14:42:47;;;;;;;10.30;5.93;;;;;;;;;;6293018;28;20429;-79
2022/04/24 14:55:45;;;;;;;12.63;7.05;;;;;;;;;;6270036;28;20013;-79
2022/04/24 14:58:46;;;;;;;13.17;7.40;;;;;;;;;;6271111;28;20020;-79
2022/04/24 15:01:47;;;;;;;14.57;6.95;;;;;;;;;;6275390;28;20581;-79
2022/04/24 15:04:47;;;;;;;11.00;6.00;;;;;;;;;;6272195;28;20013;-79
2022/04/24 15:07:47;;;;;;;12.50;5.97;;;;;;;;;;6271182;28;20013;-80
2022/04/24 15:10:47;;;;;;;13.93;6.90;;;;;;;;;;6268894;28;20053;-80
2022/04/24 15:13:48;;;;;;;11.83;5.67;;;;;;;;;;6266946;28;20029;-80
2022/04/24 15:16:49;;;;;;;13.57;6.93;;;;;;;;;;6268437;28;20328;-80
2022/04/24 15:19:49;;;;;;;8.50;5.33;;;;;;;;;;6276066;28;20730;-80
2022/04/24 15:22:51;;;;;;;7.23;4.23;;;;;;;;;;6267151;28;20020;-80
2022/04/24 15:25:51;;;;;;;7.65;4.00;;;;;;;;;;6283083;28;20020;-80
2022/04/24 15:28:52;;;;;;;8.07;3.90;;;;;;;;;;6281297;28;20086;-80
2022/04/24 15:31:53;;;;;;;5.97;4.10;;;;;;;;;;6264824;28;20353;-80
2022/04/24 15:34:54;;;;;;;9.67;4.80;;;;;;;;;;6270294;28;20123;-80
2022/04/24 15:37:54;;;;;;;10.13;5.53;;;;;;;;;;6269427;28;20104;-80
2022/04/24 15:40:55;;;;;;;7.93;3.93;;;;;;;;;;6271491;28;20031;-80
2022/04/24 15:43:55;;;;;;;6.50;3.63;;;;;;;;;;6279960;28;20025;-80
2022/04/24 15:46:55;;;;;;;7.97;3.80;;;;;;;;;;6273246;28;20105;-80
2022/04/24 15:49:57;;;;;;;6.40;3.43;;;;;;;;;;6272605;28;20024;-80
2022/04/24 15:52:57;;;;;;;10.35;4.32;;;;;;;;;;6270964;28;20025;-82
2022/04/24 15:55:58;;;;;;;11.70;5.93;;;;;;;;;;6288933;28;20455;-83
2022/04/24 15:58:59;;;;;;;12.70;6.57;;;;;;;;;;6277242;28;20024;-80
2022/04/24 16:01:59;;;;;;;12.00;5.30;;;;;;;;;;6278358;28;20013;-80
2022/04/24 16:05:02;;;;;;;11.10;5.43;;;;;;;;;;6283396;28;20021;-80
2022/04/24 16:08:03;;;;;;;9.98;4.35;;;;;;;;;;6269587;28;20277;-80
2022/04/24 16:11:03;;;;;;;7.13;2.92;;;;;;;;;;6278157;28;20029;-79
2022/04/24 16:14:03;;;;;;;5.75;3.13;;;;;;;;;;6294272;28;20483;-80
2022/04/24 16:17:03;;;;;;;10.60;3.92;;;;;;;;;;6293055;28;20032;-81
2022/04/24 16:20:04;;;;;;;7.00;4.47;;;;;;;;;;6277237;28;20044;-80
2022/04/24 16:23:04;;;;;;;5.80;3.55;;;;;;;;;;6285534;28;20032;-81
2022/04/24 16:26:04;;;;;;;10.27;4.97;;;;;;;;;;6272937;28;20064;-81
2022/04/24 16:29:05;;;;;;;12.60;5.82;;;;;;;;;;6267522;28;20028;-80
2022/04/24 16:32:07;;;;;;;11.18;5.68;;;;;;;;;;6281610;28;20473;-81
2022/04/24 16:35:09;;;;;;;8.32;4.95;;;;;;;;;;6278254;28;20140;-81
2022/04/24 16:38:09;;;;;;;11.20;5.15;;;;;;;;;;6270730;28;20029;-79
2022/04/24 16:41:09;;;;;;;12.23;6.43;;;;;;;;;;6270629;28;20074;-79
2022/04/24 16:44:09;;;;;;;12.15;6.03;;;;;;;;;;6271520;28;20270;-78
2022/04/24 16:47:10;;;;;;;13.25;6.95;;;;;;;;;;6276145;28;20220;-80
2022/04/24 16:58:44;;;;;;;11.05;5.18;;;;;;;;;;6268774;28;20020;-79
2022/04/24 17:00:09;;;;;;;50.33;27.73;;;;;;;;;;6273043;28;20028;-79
2022/04/24 17:03:10;;;;;;;40.40;24.35;;;;;;;;;;6282714;28;20034;-79
2022/04/24 17:06:10;;;;;;;20.50;11.77;;;;;;;;;;6290382;28;20472;-79
2022/04/24 17:09:11;;;;;;;29.13;18.25;;;;;;;;;;6287508;28;20013;-79
2022/04/24 17:12:11;;;;;;;11.13;4.00;;;;;;;;;;6271643;28;20091;-79
2022/04/24 17:15:12;;;;;;;5.07;2.47;;;;;;;;;;6275085;28;20742;-79
2022/04/24 17:18:12;;;;;;;16.02;7.30;;;;;;;;;;6280371;28;20052;-79
2022/04/24 17:21:14;;;;;;;17.15;6.70;;;;;;;;;;6277039;28;20304;-80
2022/04/24 17:24:14;;;;;;;13.73;5.93;;;;;;;;;;6275020;28;20504;-80
2022/04/24 17:27:14;;;;;;;21.60;12.50;;;;;;;;;;6274721;28;20039;-79
2022/04/24 17:30:15;;;;;;;12.90;4.68;;;;;;;;;;6272370;28;20719;-79
2022/04/24 17:33:15;;;;;;;17.52;7.97;;;;;;;;;;6271947;28;20112;-78
2022/04/24 17:36:15;;;;;;;31.50;11.27;;;;;;;;;;6269137;28;20043;-79
2022/04/24 17:39:15;;;;;;;28.95;12.68;;;;;;;;;;6272911;28;20255;-79
2022/04/24 17:42:16;;;;;;;63.75;22.23;;;;;;;;;;6270800;28;20032;-80
2022/04/24 17:45:16;;;;;;;29.35;18.05;;;;;;;;;;6274448;28;20021;-80
2022/04/24 17:48:17;;;;;;;19.65;9.70;;;;;;;;;;6273480;28;20657;-80
2022/04/24 17:51:17;;;;;;;17.45;7.75;;;;;;;;;;6277445;28;20028;-80
2022/04/24 17:54:18;;;;;;;14.93;8.93;;;;;;;;;;6274326;28;20462;-79
2022/04/24 17:57:18;;;;;;;11.70;6.78;;;;;;;;;;6272272;28;20442;-80
2022/04/24 18:00:19;;;;;;;15.50;6.85;;;;;;;;;;6292583;28;20016;-79